Time;durP1;ratioP1;P1;durP2;ratioP2;P2;SDS_P1;SDS_P2;PMS_P1;PMS_P2;Temp;Humidity;BMP_temperature;BMP_pressure;BME280_temperature;BME280_humidity;BME280_pressure;Samples;Min_cycle;Max_cycle;Signal;HPM_P1;HPM_P2
2022/12/09 00:01:37;;;;;;;79.10;32.10;;;;;;;;;;5056665;28;20425;-92
2022/12/09 00:04:03;;;;;;;77.10;30.95;;;;;;;;;;5056947;28;20037;-93
2022/12/09 00:06:30;;;;;;;80.90;30.85;;;;;;;;;;5056986;28;20074;-92
2022/12/09 00:08:57;;;;;;;83.70;32.58;;;;;;;;;;5056634;28;20403;-91
2022/12/09 00:11:24;;;;;;;101.05;34.40;;;;;;;;;;5056718;28;20021;-91
2022/12/09 00:13:51;;;;;;;98.78;40.78;;;;;;;;;;5055818;28;20021;-91
2022/12/09 00:16:17;;;;;;;98.30;37.80;;;;;;;;;;5057109;28;20040;-91
2022/12/09 00:18:43;;;;;;;124.20;38.30;;;;;;;;;;5057613;28;20075;-92
2022/12/09 00:21:23;;;;;;;120.82;35.63;;;;;;;;;;5056170;28;20044;-92
2022/12/09 00:23:49;;;;;;;107.15;34.15;;;;;;;;;;5057731;28;20312;-91
2022/12/09 00:26:17;;;;;;;111.18;33.45;;;;;;;;;;5056526;28;20021;-91
2022/12/09 00:28:43;;;;;;;103.50;38.67;;;;;;;;;;5056394;28;20093;-91
2022/12/09 00:31:14;;;;;;;93.47;34.80;;;;;;;;;;5056396;28;20060;-91
2022/12/09 00:33:40;;;;;;;98.43;35.03;;;;;;;;;;5057555;28;20116;-91
2022/12/09 00:36:10;;;;;;;102.95;39.00;;;;;;;;;;5057335;28;20021;-91
2022/12/09 00:38:37;;;;;;;111.82;34.97;;;;;;;;;;5057729;28;20055;-91
2022/12/09 00:41:03;;;;;;;95.18;33.28;;;;;;;;;;5057249;28;20407;-90
2022/12/09 00:43:30;;;;;;;80.40;32.13;;;;;;;;;;5057116;28;20029;-92
2022/12/09 00:45:56;;;;;;;88.18;33.88;;;;;;;;;;5057391;28;20032;-92
2022/12/09 00:48:22;;;;;;;78.10;32.35;;;;;;;;;;5056163;28;20029;-93
2022/12/09 00:50:48;;;;;;;85.68;32.58;;;;;;;;;;5057019;28;20056;-93
2022/12/09 00:53:14;;;;;;;84.53;32.05;;;;;;;;;;5056375;28;20086;-93
2022/12/09 00:55:41;;;;;;;81.57;30.17;;;;;;;;;;5057457;28;20025;-92
2022/12/09 00:58:07;;;;;;;77.93;30.70;;;;;;;;;;5057484;28;20399;-92
2022/12/09 01:00:33;;;;;;;110.00;31.95;;;;;;;;;;5057267;28;20028;-92
2022/12/09 01:02:59;;;;;;;103.00;32.45;;;;;;;;;;5056059;28;20355;-93
2022/12/09 01:05:25;;;;;;;87.47;32.60;;;;;;;;;;5057131;28;20021;-93
2022/12/09 01:08:28;;;;;;;91.13;33.95;;;;;;;;;;5056174;28;20052;-92
2022/12/09 01:10:54;;;;;;;91.25;32.53;;;;;;;;;;5056844;28;20025;-93
2022/12/09 01:13:20;;;;;;;89.32;31.00;;;;;;;;;;5056478;28;20039;-94
2022/12/09 01:15:46;;;;;;;84.47;30.52;;;;;;;;;;5056893;28;20035;-90
2022/12/09 01:18:12;;;;;;;84.80;31.67;;;;;;;;;;5055858;28;20040;-92
2022/12/09 01:20:39;;;;;;;81.78;28.67;;;;;;;;;;5057071;28;20033;-91
2022/12/09 01:23:05;;;;;;;84.68;31.15;;;;;;;;;;5056975;28;20049;-92
2022/12/09 01:25:31;;;;;;;79.68;30.35;;;;;;;;;;5059086;28;20036;-92
2022/12/09 01:27:57;;;;;;;73.80;29.27;;;;;;;;;;5059497;28;20030;-91
2022/12/09 01:30:23;;;;;;;79.57;28.55;;;;;;;;;;5059791;28;20053;-92
2022/12/09 01:32:49;;;;;;;88.68;31.00;;;;;;;;;;5059977;28;20017;-94
2022/12/09 01:35:15;;;;;;;107.60;33.08;;;;;;;;;;5059677;28;20071;-94
2022/12/09 01:37:41;;;;;;;84.13;30.08;;;;;;;;;;5060429;28;20021;-94
2022/12/09 01:40:11;;;;;;;89.95;31.90;;;;;;;;;;5059486;28;20033;-93
2022/12/09 01:42:37;;;;;;;87.57;30.58;;;;;;;;;;5060385;28;20045;-93
2022/12/09 01:45:22;;;;;;;86.40;30.05;;;;;;;;;;5059410;28;20024;-90
2022/12/09 01:47:48;;;;;;;79.07;29.40;;;;;;;;;;5060500;28;20033;-91
2022/12/09 01:50:16;;;;;;;89.82;31.95;;;;;;;;;;5060152;28;20049;-90
2022/12/09 01:55:45;;;;;;;79.00;30.48;;;;;;;;;;5060323;28;20361;-91
2022/12/09 01:58:12;;;;;;;91.28;30.27;;;;;;;;;;5060136;28;20036;-91
2022/12/09 02:00:38;;;;;;;79.13;29.58;;;;;;;;;;5059705;28;20071;-91
2022/12/09 02:03:05;;;;;;;75.45;28.45;;;;;;;;;;5060242;28;20033;-90
2022/12/09 02:05:31;;;;;;;82.15;31.08;;;;;;;;;;5042606;28;20025;-90
2022/12/09 02:11:07;;;;;;;81.55;27.02;;;;;;;;;;5059886;28;20098;-90
2022/12/09 02:13:39;;;;;;;80.45;28.15;;;;;;;;;;5059800;28;20068;-91
2022/12/09 02:16:09;;;;;;;80.10;25.95;;;;;;;;;;5059610;28;20031;-92
2022/12/09 02:18:35;;;;;;;65.65;24.75;;;;;;;;;;5058621;28;20118;-91
2022/12/09 02:21:04;;;;;;;77.43;25.05;;;;;;;;;;5058640;28;20029;-91
2022/12/09 02:26:39;;;;;;;79.20;25.30;;;;;;;;;;5046326;28;20047;-91
2022/12/09 02:29:24;;;;;;;78.07;27.42;;;;;;;;;;5058465;28;20025;-91
2022/12/09 02:31:53;;;;;;;71.15;27.25;;;;;;;;;;5059312;28;20419;-91
2022/12/09 02:34:20;;;;;;;75.63;26.48;;;;;;;;;;5058379;28;20032;-91
2022/12/09 02:36:54;;;;;;;113.78;34.35;;;;;;;;;;5058330;28;20115;-91
2022/12/09 02:39:35;;;;;;;108.57;34.95;;;;;;;;;;5058512;28;20443;-90
2022/12/09 02:42:02;;;;;;;84.53;31.25;;;;;;;;;;5058032;28;20111;-91
2022/12/09 02:44:28;;;;;;;80.20;27.65;;;;;;;;;;5059419;28;20017;-92
2022/12/09 02:46:55;;;;;;;124.53;32.00;;;;;;;;;;5059220;28;20033;-92
2022/12/09 02:49:22;;;;;;;120.50;29.08;;;;;;;;;;5058811;28;20033;-89
2022/12/09 02:54:51;;;;;;;101.07;27.20;;;;;;;;;;5059123;28;20328;-92
2022/12/09 02:57:19;;;;;;;90.60;29.75;;;;;;;;;;5059133;28;20071;-89
2022/12/09 02:59:45;;;;;;;77.70;26.00;;;;;;;;;;5058828;28;20021;-90
2022/12/09 03:02:11;;;;;;;76.25;26.45;;;;;;;;;;5057785;28;20025;-90
2022/12/09 03:04:39;;;;;;;76.03;26.98;;;;;;;;;;5058736;28;20115;-91
2022/12/09 03:07:24;;;;;;;98.22;27.45;;;;;;;;;;5057643;28;20021;-91
2022/12/09 03:09:55;;;;;;;126.53;28.05;;;;;;;;;;5057727;28;20021;-91
2022/12/09 03:12:21;;;;;;;121.68;26.98;;;;;;;;;;5058726;28;20029;-92
2022/12/09 03:14:50;;;;;;;128.55;27.60;;;;;;;;;;5057441;28;20025;-91
2022/12/09 03:17:32;;;;;;;103.82;26.63;;;;;;;;;;5058205;28;20419;-93
2022/12/09 03:20:00;;;;;;;94.82;26.13;;;;;;;;;;5059016;28;20037;-93
2022/12/09 03:25:40;;;;;;;103.22;25.23;;;;;;;;;;5058505;28;20055;-94
2022/12/09 03:28:17;;;;;;;91.05;25.38;;;;;;;;;;5057822;28;20035;-90
2022/12/09 03:30:44;;;;;;;92.25;25.58;;;;;;;;;;5058618;28;20032;-91
2022/12/09 03:33:12;;;;;;;165.88;28.67;;;;;;;;;;5058417;28;20035;-90
2022/12/09 03:35:41;;;;;;;128.93;28.65;;;;;;;;;;5057216;28;20064;-90
2022/12/09 03:38:09;;;;;;;119.70;27.02;;;;;;;;;;5058392;28;20071;-90
2022/12/09 03:40:37;;;;;;;120.53;29.95;;;;;;;;;;5058414;28;20029;-91
2022/12/09 03:43:13;;;;;;;95.30;30.23;;;;;;;;;;5057935;28;20029;-92
2022/12/09 03:45:40;;;;;;;146.88;42.20;;;;;;;;;;5057992;28;20045;-91
2022/12/09 03:48:07;;;;;;;158.27;33.45;;;;;;;;;;5057916;28;20107;-92
2022/12/09 03:50:41;;;;;;;94.13;28.80;;;;;;;;;;5056914;28;20086;-91
2022/12/09 03:53:12;;;;;;;89.30;28.38;;;;;;;;;;5058124;28;20052;-93
2022/12/09 03:55:41;;;;;;;178.75;28.80;;;;;;;;;;5057056;28;20028;-93
2022/12/09 03:58:09;;;;;;;87.60;26.13;;;;;;;;;;5056745;28;20021;-93
2022/12/09 04:00:37;;;;;;;116.28;27.23;;;;;;;;;;5040252;28;20079;-92
2022/12/09 04:03:03;;;;;;;150.73;27.95;;;;;;;;;;5056655;28;20075;-90
2022/12/09 04:05:29;;;;;;;124.35;27.20;;;;;;;;;;5056944;28;20045;-90
2022/12/09 04:11:08;;;;;;;81.35;27.75;;;;;;;;;;5057699;28;20099;-90
2022/12/09 04:13:34;;;;;;;98.00;27.85;;;;;;;;;;5058002;28;20033;-91
2022/12/09 04:16:00;;;;;;;79.63;29.77;;;;;;;;;;5057591;28;20048;-91
2022/12/09 04:18:26;;;;;;;70.47;27.52;;;;;;;;;;5057361;28;20027;-91
2022/12/09 04:20:52;;;;;;;70.20;26.58;;;;;;;;;;5056328;28;20029;-90
2022/12/09 04:26:22;;;;;;;66.53;26.13;;;;;;;;;;5057877;28;20053;-91
2022/12/09 04:28:49;;;;;;;72.72;26.83;;;;;;;;;;5057700;28;20029;-90
2022/12/09 04:31:16;;;;;;;100.20;27.42;;;;;;;;;;5056553;28;20087;-90
2022/12/09 04:33:43;;;;;;;83.47;25.67;;;;;;;;;;5056683;28;20029;-91
2022/12/09 04:36:10;;;;;;;101.22;27.33;;;;;;;;;;5056579;28;20501;-92
2022/12/09 04:44:43;;;;;;;107.65;31.67;;;;;;;;;;5037303;28;20041;-90
2022/12/09 04:47:09;;;;;;;115.07;29.30;;;;;;;;;;5051148;28;20019;-90
2022/12/09 04:49:35;;;;;;;108.82;27.65;;;;;;;;;;5037097;28;20428;-91
2022/12/09 04:55:06;;;;;;;76.07;27.27;;;;;;;;;;5042501;28;20078;-89
2022/12/09 04:57:32;;;;;;;76.82;26.05;;;;;;;;;;5057573;28;20335;-89
2022/12/09 04:59:58;;;;;;;89.90;32.28;;;;;;;;;;5058669;28;20028;-90
2022/12/09 05:02:24;;;;;;;107.40;35.88;;;;;;;;;;5059881;28;20048;-90
2022/12/09 05:04:50;;;;;;;188.88;73.28;;;;;;;;;;5060166;28;20032;-91
2022/12/09 05:07:34;;;;;;;133.15;53.85;;;;;;;;;;5061308;28;20415;-91
2022/12/09 05:10:01;;;;;;;77.53;32.58;;;;;;;;;;5061393;28;20074;-90
2022/12/09 05:12:27;;;;;;;81.97;29.70;;;;;;;;;;5059941;28;20029;-91
2022/12/09 05:14:53;;;;;;;67.18;28.65;;;;;;;;;;5060804;28;20025;-90
2022/12/09 05:17:19;;;;;;;78.65;28.15;;;;;;;;;;5059862;28;20021;-90
2022/12/09 05:19:45;;;;;;;67.80;25.50;;;;;;;;;;5060613;28;20056;-91
2022/12/09 05:22:16;;;;;;;63.83;25.40;;;;;;;;;;5060608;28;20033;-90
2022/12/09 05:24:43;;;;;;;56.05;24.50;;;;;;;;;;5060772;28;20032;-90
2022/12/09 05:27:09;;;;;;;54.90;25.67;;;;;;;;;;5060988;28;20063;-90
2022/12/09 05:29:35;;;;;;;56.38;25.27;;;;;;;;;;5061149;28;20031;-90
2022/12/09 05:32:01;;;;;;;74.15;25.02;;;;;;;;;;5059643;28;20033;-91
2022/12/09 05:34:27;;;;;;;56.00;24.27;;;;;;;;;;5060906;28;20021;-91
2022/12/09 05:36:54;;;;;;;57.63;23.13;;;;;;;;;;5060426;28;20033;-91
2022/12/09 05:42:23;;;;;;;48.95;21.42;;;;;;;;;;5072625;28;20095;-91
2022/12/09 05:44:49;;;;;;;40.28;21.13;;;;;;;;;;5079412;28;20343;-91
2022/12/09 05:47:15;;;;;;;44.22;23.30;;;;;;;;;;5080183;28;20032;-92
2022/12/09 05:49:41;;;;;;;42.97;21.02;;;;;;;;;;5064149;28;20091;-93
2022/12/09 05:52:09;;;;;;;45.08;23.52;;;;;;;;;;5060378;28;20025;-91
2022/12/09 05:54:35;;;;;;;45.58;24.70;;;;;;;;;;5060477;28;20025;-92
2022/12/09 05:57:02;;;;;;;45.15;24.00;;;;;;;;;;5058985;28;20021;-90
2022/12/09 05:59:29;;;;;;;42.15;21.90;;;;;;;;;;5071144;28;20032;-90
2022/12/09 06:01:55;;;;;;;40.80;21.65;;;;;;;;;;5079545;28;20021;-90
2022/12/09 06:04:21;;;;;;;42.25;21.90;;;;;;;;;;5080405;28;20026;-91
2022/12/09 06:06:47;;;;;;;40.40;20.85;;;;;;;;;;5079054;28;20052;-90
2022/12/09 06:09:50;;;;;;;40.13;21.90;;;;;;;;;;5073173;28;20025;-91
2022/12/09 06:12:16;;;;;;;38.53;21.58;;;;;;;;;;5058878;28;20028;-90
2022/12/09 06:14:42;;;;;;;39.20;20.10;;;;;;;;;;5059614;28;20029;-90
2022/12/09 06:17:08;;;;;;;37.60;20.23;;;;;;;;;;5059906;28;20032;-91
2022/12/09 06:19:34;;;;;;;35.08;19.40;;;;;;;;;;5059516;28;20116;-91
2022/12/09 06:22:00;;;;;;;35.17;20.45;;;;;;;;;;5059342;28;20025;-92
2022/12/09 06:25:03;;;;;;;33.58;20.23;;;;;;;;;;5059233;28;20021;-91
2022/12/09 06:27:29;;;;;;;31.80;19.35;;;;;;;;;;5058470;28;20021;-90
2022/12/09 06:29:55;;;;;;;30.42;18.38;;;;;;;;;;5059486;28;20021;-90
2022/12/09 06:32:21;;;;;;;32.10;18.60;;;;;;;;;;5058112;28;20370;-89
2022/12/09 06:34:47;;;;;;;30.95;18.63;;;;;;;;;;5059314;28;20403;-90
2022/12/09 06:40:02;;;;;;;31.73;17.95;;;;;;;;;;5059451;28;20126;-89
2022/12/09 06:42:28;;;;;;;29.23;18.10;;;;;;;;;;5059237;28;20033;-89
2022/12/09 06:44:54;;;;;;;29.35;19.48;;;;;;;;;;5057772;28;20434;-89
2022/12/09 06:47:20;;;;;;;36.40;19.90;;;;;;;;;;5059299;28;20099;-89
2022/12/09 06:49:46;;;;;;;36.20;25.05;;;;;;;;;;5058713;28;20045;-89
2022/12/09 06:52:12;;;;;;;38.97;24.88;;;;;;;;;;5059330;28;20035;-89
2022/12/09 06:55:15;;;;;;;41.72;27.45;;;;;;;;;;5059259;28;20029;-89
2022/12/09 06:57:41;;;;;;;42.83;25.95;;;;;;;;;;5058893;28;20032;-88
2022/12/09 07:00:07;;;;;;;61.08;29.38;;;;;;;;;;5062612;28;20035;-89
2022/12/09 07:02:34;;;;;;;157.40;56.05;;;;;;;;;;5058660;28;20037;-89
2022/12/09 07:05:00;;;;;;;202.82;70.47;;;;;;;;;;5058764;28;20033;-90
2022/12/09 07:07:39;;;;;;;177.77;72.30;;;;;;;;;;5057932;28;20055;-89
2022/12/09 07:10:06;;;;;;;95.82;48.28;;;;;;;;;;5045398;28;20025;-88
2022/12/09 07:12:32;;;;;;;46.33;26.83;;;;;;;;;;5057478;28;20063;-92
2022/12/09 07:14:58;;;;;;;49.05;27.40;;;;;;;;;;5058826;28;20025;-91
2022/12/09 07:17:24;;;;;;;47.83;28.20;;;;;;;;;;5058721;28;20017;-92
2022/12/09 07:19:50;;;;;;;43.95;25.58;;;;;;;;;;5057585;28;20033;-91
2022/12/09 07:22:16;;;;;;;58.05;29.08;;;;;;;;;;5057166;28;20029;-91
2022/12/09 07:27:45;;;;;;;40.70;22.90;;;;;;;;;;5058616;28;20032;-91
2022/12/09 07:30:11;;;;;;;54.35;26.25;;;;;;;;;;5073666;28;20016;-91
2022/12/09 07:32:38;;;;;;;33.47;19.30;;;;;;;;;;5076906;28;20032;-93
2022/12/09 07:35:04;;;;;;;54.50;26.48;;;;;;;;;;5077302;28;20028;-91
2022/12/09 07:37:30;;;;;;;263.73;79.47;;;;;;;;;;5077552;28;20048;-90
2022/12/09 07:40:14;;;;;;;170.35;65.38;;;;;;;;;;5078176;28;20024;-90
2022/12/09 07:42:40;;;;;;;96.25;45.67;;;;;;;;;;5037093;28;20132;-92
2022/12/09 07:45:07;;;;;;;44.67;25.65;;;;;;;;;;5038101;28;20028;-92
2022/12/09 07:47:33;;;;;;;37.78;21.13;;;;;;;;;;5037943;28;20035;-91
2022/12/09 07:49:59;;;;;;;30.48;19.05;;;;;;;;;;5046067;28;20152;-90
2022/12/09 07:52:25;;;;;;;37.33;22.38;;;;;;;;;;5056760;28;20036;-90
2022/12/09 07:54:53;;;;;;;34.45;20.27;;;;;;;;;;5056338;28;20311;-92
2022/12/09 07:57:20;;;;;;;36.40;22.60;;;;;;;;;;5057910;28;20029;-92
2022/12/09 07:59:46;;;;;;;43.33;30.77;;;;;;;;;;5057053;28;20025;-93
2022/12/09 08:02:12;;;;;;;46.97;32.33;;;;;;;;;;5057811;28;20031;-90
2022/12/09 08:04:38;;;;;;;42.38;24.75;;;;;;;;;;5056757;28;20021;-91
2022/12/09 08:07:04;;;;;;;37.78;21.95;;;;;;;;;;5056554;28;20021;-90
2022/12/09 08:09:30;;;;;;;36.63;19.85;;;;;;;;;;5056597;28;20331;-90
2022/12/09 08:11:56;;;;;;;32.35;18.63;;;;;;;;;;5069254;28;20104;-89
2022/12/09 08:14:22;;;;;;;31.10;18.35;;;;;;;;;;5056917;28;20061;-91
2022/12/09 08:16:48;;;;;;;28.95;17.58;;;;;;;;;;5057634;28;20048;-90
2022/12/09 08:19:14;;;;;;;29.48;20.08;;;;;;;;;;5041384;28;20053;-88
2022/12/09 08:21:40;;;;;;;32.63;20.38;;;;;;;;;;5037836;28;20021;-89
2022/12/09 08:24:07;;;;;;;43.00;25.25;;;;;;;;;;5040814;28;20031;-90
2022/12/09 08:26:33;;;;;;;40.67;24.80;;;;;;;;;;5056460;28;20481;-89
2022/12/09 08:28:59;;;;;;;32.55;18.60;;;;;;;;;;5058198;28;20025;-89
2022/12/09 08:31:26;;;;;;;27.05;17.38;;;;;;;;;;5057509;28;20112;-90
2022/12/09 08:33:53;;;;;;;33.33;18.80;;;;;;;;;;5058840;28;20020;-89
2022/12/09 08:36:20;;;;;;;32.35;17.88;;;;;;;;;;5060740;28;20067;-89
2022/12/09 08:38:46;;;;;;;54.05;26.45;;;;;;;;;;5061966;28;20312;-89
2022/12/09 08:41:18;;;;;;;89.00;33.42;;;;;;;;;;5060402;28;20420;-90
2022/12/09 08:43:44;;;;;;;65.03;27.90;;;;;;;;;;5058595;28;20424;-84
2022/12/09 08:46:11;;;;;;;52.38;25.85;;;;;;;;;;5045454;28;20017;-90
2022/12/09 08:48:38;;;;;;;77.70;29.17;;;;;;;;;;5059714;28;20013;-90
2022/12/09 08:51:05;;;;;;;59.50;28.23;;;;;;;;;;5058539;28;20049;-90
2022/12/09 09:02:42;;;;;;;74.38;30.92;;;;;;;;;;5041101;28;20079;-90
2022/12/09 09:05:08;;;;;;;47.47;22.52;;;;;;;;;;5045881;28;20309;-88
2022/12/09 09:07:34;;;;;;;33.90;20.33;;;;;;;;;;5041454;28;20025;-89
2022/12/09 09:10:19;;;;;;;36.92;20.88;;;;;;;;;;5056808;28;20044;-89
2022/12/09 09:12:45;;;;;;;34.55;17.98;;;;;;;;;;5056634;28;20037;-89
2022/12/09 09:15:11;;;;;;;37.45;17.85;;;;;;;;;;5067210;28;20036;-90
2022/12/09 09:17:37;;;;;;;39.38;19.73;;;;;;;;;;5107130;22;20054;-90
2022/12/09 09:20:03;;;;;;;31.75;16.92;;;;;;;;;;5020094;28;20057;-90
2022/12/09 09:22:29;;;;;;;32.20;18.02;;;;;;;;;;5020605;28;20037;-90
2022/12/09 09:34:06;;;;;;;35.60;20.63;;;;;;;;;;5020936;28;20036;-91
2022/12/09 09:36:32;;;;;;;36.28;18.00;;;;;;;;;;5019810;28;20117;-89
2022/12/09 09:38:58;;;;;;;55.35;18.98;;;;;;;;;;5020671;28;20026;-91
2022/12/09 09:41:27;;;;;;;40.05;19.40;;;;;;;;;;5020825;28;20026;-89
2022/12/09 09:43:54;;;;;;;40.40;20.02;;;;;;;;;;5019627;28;20025;-89
2022/12/09 09:46:28;;;;;;;38.70;19.77;;;;;;;;;;5018441;28;20038;-89
2022/12/09 09:48:55;;;;;;;37.78;19.63;;;;;;;;;;5006657;28;20113;-88
2022/12/09 09:51:23;;;;;;;41.75;20.63;;;;;;;;;;5019766;28;20025;-94
2022/12/09 09:53:51;;;;;;;31.42;17.55;;;;;;;;;;5005428;28;20360;-89
2022/12/09 09:56:24;;;;;;;33.05;17.35;;;;;;;;;;5009929;28;20027;-89
2022/12/09 09:58:50;;;;;;;;;;;;;;;;;;5013140;28;20064;-89
2022/12/09 10:01:17;;;;;;;31.52;17.27;;;;;;;;;;5019778;28;19912;-89
2022/12/09 10:03:58;;;;;;;33.72;19.83;;;;;;;;;;5018478;28;20041;-89
2022/12/09 10:06:27;;;;;;;34.55;17.70;;;;;;;;;;4999533;28;20039;-88
2022/12/09 10:08:55;;;;;;;30.52;17.98;;;;;;;;;;4999574;28;20409;-89
2022/12/09 10:11:24;;;;;;;29.45;18.30;;;;;;;;;;5014105;28;20022;-88
2022/12/09 10:14:08;;;;;;;28.30;16.63;;;;;;;;;;4999506;28;20034;-89
2022/12/09 10:16:47;;;;;;;30.60;16.88;;;;;;;;;;4999465;28;20034;-88
2022/12/09 10:19:31;;;;;;;32.15;17.52;;;;;;;;;;5000748;28;20060;-88
2022/12/09 10:21:58;;;;;;;34.25;17.48;;;;;;;;;;5011678;28;20022;-90
2022/12/09 10:24:30;;;;;;;40.40;17.80;;;;;;;;;;5018904;28;20036;-89
2022/12/09 10:26:59;;;;;;;31.42;18.02;;;;;;;;;;5000500;28;20041;-88
2022/12/09 10:29:45;;;;;;;31.35;17.45;;;;;;;;;;5000485;28;20046;-88
2022/12/09 10:32:18;;;;;;;35.22;19.45;;;;;;;;;;5000664;28;20130;-88
2022/12/09 10:34:46;;;;;;;46.97;20.30;;;;;;;;;;5019320;28;20037;-88
2022/12/09 10:37:23;;;;;;;36.30;18.63;;;;;;;;;;5009236;28;20101;-88
2022/12/09 10:39:52;;;;;;;34.67;19.02;;;;;;;;;;5010145;28;20030;-88
2022/12/09 10:45:04;;;;;;;32.15;18.10;;;;;;;;;;5018440;28;20466;-88
2022/12/09 10:47:30;;;;;;;32.88;18.95;;;;;;;;;;5017643;28;20030;-88
2022/12/09 10:49:58;;;;;;;34.78;19.75;;;;;;;;;;5009994;28;20110;-88
2022/12/09 10:52:27;;;;;;;32.42;19.65;;;;;;;;;;5008802;28;20044;-87
2022/12/09 10:54:53;;;;;;;34.10;19.50;;;;;;;;;;5017820;28;20420;-87
2022/12/09 10:57:27;;;;;;;35.75;19.20;;;;;;;;;;5016753;28;20076;-87
2022/12/09 10:59:59;;;;;;;33.47;19.52;;;;;;;;;;5014038;28;20037;-87
2022/12/09 11:02:25;;;;;;;33.67;19.40;;;;;;;;;;5018079;28;20109;-87
2022/12/09 11:04:52;;;;;;;40.70;21.20;;;;;;;;;;5018199;28;20068;-87
2022/12/09 11:07:20;;;;;;;38.60;19.52;;;;;;;;;;5019156;28;20092;-87
2022/12/09 11:09:58;;;;;;;38.38;21.75;;;;;;;;;;5019185;28;20022;-86
2022/12/09 11:12:28;;;;;;;37.90;22.50;;;;;;;;;;5019298;28;20479;-86
2022/12/09 11:15:22;;;;;;;42.15;21.42;;;;;;;;;;5018925;28;20515;-87
2022/12/09 11:17:58;;;;;;;37.67;21.08;;;;;;;;;;5027422;28;20431;-87
2022/12/09 11:20:26;;;;;;;38.63;21.83;;;;;;;;;;5038411;28;20025;-88
2022/12/09 11:23:01;;;;;;;47.28;24.80;;;;;;;;;;5038277;28;20037;-86
2022/12/09 11:28:38;;;;;;;56.72;26.95;;;;;;;;;;5038634;28;20032;-86
2022/12/09 11:31:12;;;;;;;66.72;27.83;;;;;;;;;;5020835;28;20027;-87
2022/12/09 11:33:41;;;;;;;54.13;26.10;;;;;;;;;;5020760;28;20032;-86
2022/12/09 11:36:09;;;;;;;57.45;27.38;;;;;;;;;;5037791;28;20026;-86
2022/12/09 11:38:52;;;;;;;45.28;22.23;;;;;;;;;;5020717;28;20052;-87
2022/12/09 11:44:22;;;;;;;42.67;20.55;;;;;;;;;;5038024;28;20446;-87
2022/12/09 11:46:59;;;;;;;35.78;18.92;;;;;;;;;;5038204;28;20044;-87
2022/12/09 11:49:26;;;;;;;39.38;20.90;;;;;;;;;;5037963;28;20022;-88
2022/12/09 11:52:00;;;;;;;50.50;23.40;;;;;;;;;;5037785;28;20018;-87
2022/12/09 11:54:31;;;;;;;47.83;20.67;;;;;;;;;;5037590;28;20144;-88
2022/12/09 11:56:58;;;;;;;31.73;18.63;;;;;;;;;;5020424;28;20458;-87
2022/12/09 11:59:29;;;;;;;34.85;19.67;;;;;;;;;;5038096;28;20029;-89
2022/12/09 12:01:55;;;;;;;35.95;20.45;;;;;;;;;;5037750;28;20067;-84
2022/12/09 12:04:26;;;;;;;47.05;20.85;;;;;;;;;;5020919;28;20033;-89
2022/12/09 12:06:55;;;;;;;43.25;20.25;;;;;;;;;;5038809;28;20101;-88
2022/12/09 12:09:29;;;;;;;40.03;19.02;;;;;;;;;;5040785;28;20021;-90
2022/12/09 12:12:08;;;;;;;40.30;20.15;;;;;;;;;;5020599;28;20470;-90
2022/12/09 12:14:37;;;;;;;57.55;19.85;;;;;;;;;;5020348;28;20068;-89
2022/12/09 12:17:17;;;;;;;55.85;20.00;;;;;;;;;;5021076;28;20038;-87
2022/12/09 12:19:49;;;;;;;40.22;20.02;;;;;;;;;;5037966;28;20037;-89
2022/12/09 12:22:15;;;;;;;;;;;;;;;;;;5037067;28;20018;-88
2022/12/09 12:25:00;;;;;;;263.00;193.23;;;;;;;;;;5037778;28;19912;-88
2022/12/09 12:27:41;;;;;;;233.05;143.48;;;;;;;;;;5019896;28;20466;-88
2022/12/09 12:30:12;;;;;;;171.63;106.50;;;;;;;;;;5037761;28;20025;-89
2022/12/09 12:32:41;;;;;;;135.65;85.38;;;;;;;;;;5037379;28;20289;-88
2022/12/09 12:35:10;;;;;;;157.02;77.53;;;;;;;;;;5020113;28;20022;-90
2022/12/09 12:37:36;;;;;;;88.25;43.50;;;;;;;;;;5037365;28;20074;-88
2022/12/09 12:40:10;;;;;;;85.25;40.25;;;;;;;;;;5020089;28;20057;-88
2022/12/09 12:42:39;;;;;;;116.07;54.30;;;;;;;;;;5037291;28;20036;-90
2022/12/09 12:48:20;;;;;;;98.25;52.28;;;;;;;;;;5037415;28;20041;-89
2022/12/09 12:50:55;;;;;;;81.70;50.20;;;;;;;;;;5037314;28;20457;-88
2022/12/09 12:53:36;;;;;;;61.15;31.92;;;;;;;;;;5019851;28;20323;-86
2022/12/09 12:56:05;;;;;;;70.53;38.20;;;;;;;;;;5037625;28;20052;-89
2022/12/09 12:58:31;;;;;;;71.00;41.28;;;;;;;;;;5037578;28;20026;-89
2022/12/09 13:01:21;;;;;;;72.07;41.85;;;;;;;;;;5037375;28;20037;-89
2022/12/09 13:03:58;;;;;;;72.25;39.28;;;;;;;;;;5037451;28;20036;-88
2022/12/09 13:06:35;;;;;;;61.53;36.35;;;;;;;;;;5007229;28;20037;-85
2022/12/09 13:12:16;;;;;;;69.68;40.55;;;;;;;;;;5018119;28;20028;-91
2022/12/09 13:14:53;;;;;;;60.63;33.10;;;;;;;;;;5021869;28;20037;-92
2022/12/09 13:17:28;;;;;;;69.55;32.15;;;;;;;;;;5017412;28;20045;-93
2022/12/09 13:20:05;;;;;;;58.10;29.70;;;;;;;;;;5000785;28;20133;-93
2022/12/09 13:22:43;;;;;;;65.05;29.58;;;;;;;;;;5003731;28;20438;-92
2022/12/09 13:25:37;;;;;;;53.58;27.42;;;;;;;;;;5003968;28;20030;-93
2022/12/09 13:28:24;;;;;;;73.07;30.70;;;;;;;;;;5021023;28;20026;-92
2022/12/09 13:30:58;;;;;;;62.13;31.05;;;;;;;;;;5003839;28;20026;-94
2022/12/09 13:33:44;;;;;;;120.10;48.58;;;;;;;;;;5010851;28;20064;-91
2022/12/09 13:36:30;;;;;;;146.23;72.63;;;;;;;;;;5003938;28;20037;-92
2022/12/09 13:44:47;;;;;;;106.60;67.53;;;;;;;;;;5040862;28;20041;-92
2022/12/09 13:47:24;;;;;;;68.13;39.60;;;;;;;;;;5022785;28;20112;-93
2022/12/09 13:50:03;;;;;;;97.95;58.72;;;;;;;;;;5018620;28;20033;-90
2022/12/09 13:52:40;;;;;;;70.10;36.08;;;;;;;;;;5006221;28;20112;-90
2022/12/09 13:55:17;;;;;;;60.47;29.80;;;;;;;;;;5008707;28;20014;-92
2022/12/09 13:57:55;;;;;;;51.25;22.23;;;;;;;;;;5117806;22;20057;-95
2022/12/09 14:00:21;;;;;;;84.07;40.47;;;;;;;;;;5039761;28;20113;-87
2022/12/09 14:03:05;;;;;;;65.15;34.22;;;;;;;;;;5056635;28;20034;-94
2022/12/09 14:05:35;;;;;;;48.70;24.42;;;;;;;;;;5040898;28;20095;-92
2022/12/09 14:08:03;;;;;;;58.67;24.38;;;;;;;;;;5042263;28;20025;-92
2022/12/09 14:10:46;;;;;;;65.25;28.13;;;;;;;;;;5039753;28;20033;-94
2022/12/09 14:13:27;;;;;;;57.85;23.90;;;;;;;;;;5039917;28;20030;-92
2022/12/09 14:16:10;;;;;;;52.55;23.45;;;;;;;;;;5035270;28;20036;-92
2022/12/09 14:18:36;;;;;;;58.53;25.33;;;;;;;;;;5038827;28;20022;-91
2022/12/09 14:21:17;;;;;;;61.22;25.88;;;;;;;;;;5038685;28;20029;-92
2022/12/09 14:29:55;;;;;;;61.25;21.13;;;;;;;;;;5026078;28;20495;-91
2022/12/09 14:32:24;;;;;;;63.08;22.70;;;;;;;;;;5034738;28;20435;-93
2022/12/09 14:35:00;;;;;;;63.83;23.85;;;;;;;;;;5021810;28;20415;-91
2022/12/09 14:37:32;;;;;;;63.55;23.98;;;;;;;;;;5002782;28;20022;-93
2022/12/09 14:40:02;;;;;;;82.70;27.20;;;;;;;;;;5002300;28;20109;-90
2022/12/09 14:42:41;;;;;;;90.35;32.28;;;;;;;;;;5018538;28;20340;-91
2022/12/09 14:45:21;;;;;;;88.35;32.88;;;;;;;;;;5018481;28;20080;-90
2022/12/09 14:47:50;;;;;;;94.18;32.13;;;;;;;;;;5018595;28;20117;-92
2022/12/09 14:50:18;;;;;;;117.07;40.47;;;;;;;;;;5018711;28;20312;-91
2022/12/09 14:52:52;;;;;;;109.90;37.15;;;;;;;;;;5018311;28;20026;-92
2022/12/09 14:55:19;;;;;;;114.40;33.53;;;;;;;;;;5019282;28;20021;-92
2022/12/09 14:57:46;;;;;;;123.10;33.92;;;;;;;;;;5022967;28;20463;-91
2022/12/09 15:00:25;;;;;;;91.03;28.35;;;;;;;;;;5038086;28;20040;-92
2022/12/09 15:02:52;;;;;;;89.63;26.55;;;;;;;;;;5042619;28;20430;-92
2022/12/09 15:05:18;;;;;;;101.70;24.90;;;;;;;;;;5042534;28;20405;-89
2022/12/09 15:07:44;;;;;;;97.13;26.63;;;;;;;;;;5042417;28;20025;-90
2022/12/09 15:10:29;;;;;;;96.45;30.13;;;;;;;;;;5041253;28;20104;-89
2022/12/09 15:12:56;;;;;;;92.25;28.10;;;;;;;;;;5040349;28;20036;-89
2022/12/09 15:15:27;;;;;;;89.50;28.90;;;;;;;;;;5041644;28;20036;-91
2022/12/09 15:17:53;;;;;;;88.10;25.27;;;;;;;;;;5042462;28;20022;-89
2022/12/09 15:20:28;;;;;;;86.03;24.23;;;;;;;;;;5042192;28;20034;-91
2022/12/09 15:22:59;;;;;;;71.07;22.27;;;;;;;;;;5039938;28;20029;-90
2022/12/09 15:25:26;;;;;;;60.83;23.00;;;;;;;;;;5039038;28;20097;-91
2022/12/09 15:27:55;;;;;;;85.30;24.77;;;;;;;;;;5038000;28;20017;-91
2022/12/09 15:30:23;;;;;;;86.32;26.05;;;;;;;;;;5038217;28;20055;-90
2022/12/09 15:32:49;;;;;;;71.85;25.33;;;;;;;;;;5038077;28;20029;-91
2022/12/09 15:35:17;;;;;;;82.55;26.65;;;;;;;;;;5038770;28;20056;-90
2022/12/09 15:37:44;;;;;;;68.60;21.88;;;;;;;;;;5038602;28;20036;-92
2022/12/09 15:40:30;;;;;;;77.22;25.05;;;;;;;;;;5038735;28;20022;-89
2022/12/09 15:43:08;;;;;;;86.32;26.02;;;;;;;;;;5037668;28;20025;-91
2022/12/09 15:45:36;;;;;;;73.53;24.23;;;;;;;;;;5038686;28;20029;-89
2022/12/09 15:48:14;;;;;;;72.28;25.77;;;;;;;;;;5037570;28;20025;-90
2022/12/09 15:50:40;;;;;;;69.18;26.52;;;;;;;;;;5038391;28;20028;-92
2022/12/09 15:53:12;;;;;;;81.30;29.30;;;;;;;;;;5038587;28;20033;-90
2022/12/09 15:56:00;;;;;;;84.65;34.05;;;;;;;;;;5037835;28;20029;-90
2022/12/09 15:58:32;;;;;;;86.72;36.72;;;;;;;;;;5037668;28;20065;-91